Terminal Aerodrome Forecast
Issued by NWS Goodland, KS

Home | Current Version | Previous Version | Text Only | Print | Product List | Glossary On
Versions: 1 2 3 4 5 6 7 8 9 10 11 12 13 14 15 16 17 18 19 20 21 22 23 24 25
975
FTUS43 KGLD 212110 AAA
TAFGLD
TAF AMD
KGLD 212110Z 2121/2218 16015G23KT P6SM BKN060
     FM220100 14010KT P6SM BKN050
     FM220300 13008KT P6SM BKN030
     FM220600 14010KT P6SM BKN020
     FM221100 15008KT 5SM BR VCSH OVC015=

USA.gov is the U.S. government's official web portal to all federal, state and local government web resources and services.